Latest Coastal Weather Observations for McCluer Island

IDD60701

Issued at 2:05 am CST Sunday 23 November 2014 (issued every 10 minutes, with the page automatically refreshed every 10 minutes)

About coastal observations | Map of coastal stations | Coastal observations for NT | Marine services | Other Formats
Station Details ID: 014274 Name: MCCLUER ISLAND Lat: -11.05 Lon: 132.98 Height: 1.4 m
Data from the previous 72 hours. | See also: Recent months at McCluer Island
Date/Time
CST
Temp

°C
Wind Pressure Rain
since 9am
mm
Weather Cloud Vis
km
Sea
Height
m
Swell
Dir
 
Speed
knots
Gust
knots
hPa Trend Height
m
Period
s
Dir
23/02:00am 28.5 NE 12 14 1009.6 - 0.0 - - - - - - -
23/01:30am 28.6 NNE 12 15 1009.6 - 0.0 - - - - - - -
23/01:00am 28.9 NNE 12 14 1009.8 - 0.0 - - - - - - -
23/12:30am 28.7 NNE 12 14 1009.9 - 0.0 - - - - - - -
23/12:00am 29.0 NNE 11 13 1010.2 - 0.0 - - - - - - -
 
Date/Time
CST
Temp

°C
Wind Pressure Rain
since 9am
mm
Weather Cloud Vis
km
Sea
Height
m
Swell
Dir
 
Speed
knots
Gust
knots
hPa Trend Height
m
Period
s
Dir
22/11:30pm 28.9 NE 10 11 1010.3 - 0.0 - - - - - - -
22/11:00pm 29.0 NE 10 12 1010.4 - 0.0 - - - - - - -
22/10:30pm 28.9 NE 10 11 1010.3 - 0.0 - - - - - - -
22/10:00pm 29.1 NE 9 11 1010.3 - 0.0 - - - - - - -
22/09:30pm 28.9 NE 10 12 1010.6 - 0.0 - - - - - - -
22/09:00pm 29.0 NE 11 13 1010.4 - 0.0 - - - - - - -
22/08:30pm 29.1 ENE 11 12 1010.2 - 0.0 - - - - - - -
22/08:00pm 29.3 ENE 9 11 1009.8 - 0.0 - - - - - - -
22/07:30pm 29.2 ENE 11 13 1009.6 - 0.0 - - - - - - -
22/07:00pm 29.2 ENE 12 14 1009.6 - 0.0 - - - - - - -
22/06:30pm 29.0 ENE 13 15 1009.2 - 0.0 - - - - - - -
22/06:00pm 29.4 ENE 11 13 1009.0 - 0.0 - - - - - - -
22/05:30pm 29.6 ENE 11 13 1008.8 - 0.0 - - - - - - -
22/05:00pm 29.6 ENE 12 15 1008.6 - 0.0 - - - - - - -
22/04:30pm 29.5 E 13 15 1008.7 - 0.0 - - - - - - -
22/04:00pm 29.9 ENE 12 14 1008.8 - 0.0 - - - - - - -
22/03:30pm 30.2 E 11 13 1009.0 - 0.0 - - - - - - -
22/03:00pm 30.3 ENE 10 11 1009.2 - 0.0 - - - - - - -
22/02:30pm 31.2 E 9 11 1009.6 - 0.0 - - - - - - -
22/02:00pm 31.5 E 11 13 1010.2 - 0.0 - - - - - - -
22/01:30pm 31.1 E 10 12 1010.6 - 0.0 - - - - - - -
22/01:00pm 31.3 ENE 9 11 1010.9 - 0.0 - - - - - - -
22/12:30pm 31.2 ESE 10 13 1011.2 - 0.0 - - - - - - -
22/12:00pm 31.5 E 11 13 1011.3 - 0.0 - - - - - - -
22/11:30am 31.1 E 9 11 1011.5 - 0.0 - - - - - - -
22/11:00am 31.0 E 9 11 1011.4 - 0.0 - - - - - - -
22/10:30am 30.5 E 8 10 1011.5 - 0.0 - - - - - - -
22/10:00am 30.6 E 8 10 1011.7 - 0.0 - - - - - - -
22/09:30am 30.2 E 8 9 1011.6 - 0.0 - - - - - - -
22/09:00am 29.8 E 7 9 1011.5 - 0.0 - - - - - - -
22/08:30am 30.0 E 7 9 1011.4 - 0.0 - - - - - - -
22/08:00am 29.6 E 8 10 1011.4 - 0.0 - - - - - - -
22/07:30am 29.1 E 9 10 1011.1 - 0.0 - - - - - - -
22/07:00am 28.7 ENE 10 12 1010.6 - 0.0 - - - - - - -
22/06:30am 28.3 ENE 10 12 1010.2 - 0.0 - - - - - - -
22/06:00am 28.3 ENE 11 14 1009.9 - 0.0 - - - - - - -
22/05:30am 28.2 NE 9 11 1009.9 - 0.0 - - - - - - -
22/05:00am 28.2 ENE 10 13 1009.6 - 0.0 - - - - - - -
22/04:30am 28.2 NE 10 12 1009.3 - 0.0 - - - - - - -
22/04:00am 28.4 NE 10 11 1009.0 - 0.0 - - - - - - -
22/03:30am 28.1 NE 11 12 1009.0 - 0.0 - - - - - - -
22/03:00am 28.3 NE 12 14 1008.8 - 0.0 - - - - - - -
22/02:30am 28.6 NNE 12 14 1009.0 - 0.0 - - - - - - -
22/02:00am 28.3 NNE 11 13 1009.3 - 0.0 - - - - - - -
22/01:30am 28.3 NNE 11 13 1009.6 - 0.0 - - - - - - -
22/01:00am 28.5 NE 10 11 1009.6 - 0.0 - - - - - - -
22/12:30am 28.7 NNE 10 11 1009.8 - 0.0 - - - - - - -
22/12:00am 28.6 NNE 9 11 1009.9 - 0.0 - - - - - - -
 
Date/Time
CST
Temp

°C
Wind Pressure Rain
since 9am
mm
Weather Cloud Vis
km
Sea
Height
m
Swell
Dir
 
Speed
knots
Gust
knots
hPa Trend Height
m
Period
s
Dir
21/11:30pm 28.5 NNE 10 12 1010.0 - 0.0 - - - - - - -
21/11:00pm 28.9 NE 10 11 1009.9 - 0.0 - - - - - - -
21/10:30pm 28.8 NE 9 11 1009.9 - 0.0 - - - - - - -
21/10:00pm 28.8 NE 9 11 1009.6 - 0.0 - - - - - - -
21/09:30pm 28.9 ENE 9 11 1009.4 - 0.0 - - - - - - -
21/09:00pm 28.7 ENE 8 10 1009.3 - 0.0 - - - - - - -
21/08:30pm 28.9 E 8 11 1009.3 - 0.0 - - - - - - -
21/08:00pm 29.2 ENE 9 10 1009.1 - 0.0 - - - - - - -
21/07:30pm 29.2 E 9 11 1009.1 - 0.0 - - - - - - -
21/07:00pm 29.2 E 8 10 1008.9 - 0.0 - - - - - - -
21/06:30pm 29.0 E 8 9 1008.8 - 0.0 - - - - - - -
21/06:00pm 29.3 E 9 11 1008.7 - 0.0 - - - - - - -
21/05:30pm 29.4 ENE 8 10 1008.7 - 0.0 - - - - - - -
21/05:00pm 29.6 E 7 9 1008.6 - 0.0 - - - - - - -
21/04:30pm 29.7 E 8 9 1008.4 - 0.0 - - - - - - -
21/04:00pm 29.7 ENE 9 11 1008.5 - 0.0 - - - - - - -
21/03:30pm 30.3 E 9 11 1008.7 - 0.0 - - - - - - -
21/03:00pm 29.8 ENE 10 12 1008.9 - 0.0 - - - - - - -
21/02:30pm 29.7 ENE 11 14 1009.1 - 0.0 - - - - - - -
21/02:00pm 30.0 ENE 11 13 1009.5 - 0.0 - - - - - - -
21/01:30pm 29.7 NE 12 15 1009.9 - 0.0 - - - - - - -
21/01:00pm 30.3 ENE 9 12 1010.3 - 0.0 - - - - - - -
21/12:30pm 30.1 ENE 8 10 1010.7 - 0.0 - - - - - - -
21/12:00pm 30.2 E 9 12 1011.0 - 0.0 - - - - - - -
21/11:30am 30.6 E 9 10 1011.3 - 0.0 - - - - - - -
21/11:00am 30.2 E 8 10 1011.8 - 0.0 - - - - - - -
21/10:30am 30.5 E 9 11 1012.0 - 0.0 - - - - - - -
21/10:00am 30.0 ENE 8 11 1012.1 - 0.0 - - - - - - -
21/09:30am 29.8 E 9 12 1012.3 - 0.0 - - - - - - -
21/09:00am 29.4 E 9 11 1012.2 - 0.0 - - - - - - -
21/08:30am 29.2 ENE 9 11 1012.0 - 0.0 - - - - - - -
21/08:00am 28.7 E 8 10 1011.7 - 0.0 - - - - - - -
21/07:30am 28.7 ENE 9 13 1011.3 - 0.0 - - - - - - -
21/07:00am 28.5 ENE 11 13 1010.8 - 0.0 - - - - - - -
21/06:30am 28.6 ENE 11 13 1010.2 - 0.0 - - - - - - -
21/06:00am 28.6 ENE 11 13 1009.6 - 0.0 - - - - - - -
21/05:30am 28.0 ENE 11 13 1009.2 - 0.0 - - - - - - -
21/05:00am 28.2 ENE 11 13 1009.0 - 0.0 - - - - - - -
21/04:30am 28.3 ENE 11 13 1008.8 - 0.0 - - - - - - -
21/04:00am 28.3 ENE 12 13 1008.6 - 0.0 - - - - - - -
21/03:30am 28.4 ENE 12 15 1008.5 - 0.0 - - - - - - -
21/03:00am 28.2 ENE 13 15 1008.8 - 0.0 - - - - - - -
21/02:30am 28.6 ENE 13 15 1008.9 - 0.0 - - - - - - -
21/02:00am 28.7 NE 13 15 1009.2 - 0.0 - - - - - - -
21/01:30am 28.7 ENE 11 13 1009.6 - 0.0 - - - - - - -
21/01:00am 28.7 ENE 13 14 1009.9 - 0.0 - - - - - - -
21/12:30am 28.8 ENE 13 16 1010.0 - 0.0 - - - - - - -
21/12:00am 29.0 ENE 14 17 1010.1 - 0.0 - - - - - - -
 
Date/Time
CST
Temp

°C
Wind Pressure Rain
since 9am
mm
Weather Cloud Vis
km
Sea
Height
m
Swell
Dir
 
Speed
knots
Gust
knots
hPa Trend Height
m
Period
s
Dir
20/11:30pm 29.1 NE 14 17 1010.1 - 0.0 - - - - - - -
20/11:00pm 29.0 NE 14 15 1010.0 - 0.0 - - - - - - -
20/10:30pm 29.1 ENE 13 15 1010.0 - 0.0 - - - - - - -
20/10:00pm 29.3 ENE 12 14 1010.0 - 0.0 - - - - - - -
20/09:30pm 29.3 ENE 14 16 1009.9 - 0.0 - - - - - - -
20/09:00pm 29.4 ENE 13 15 1009.6 - 0.0 - - - - - - -
20/08:30pm 29.4 ENE 13 16 1009.5 - 0.0 - - - - - - -
20/08:00pm 29.8 E 13 15 1009.3 - 0.0 - - - - - - -
20/07:30pm 29.6 E 11 13 1009.0 - 0.0 - - - - - - -
20/07:00pm 29.6 ENE 10 12 1008.7 - 0.0 - - - - - - -
20/06:30pm 29.7 E 10 12 1008.6 - 0.0 - - - - - - -
20/06:00pm 30.0 E 8 9 1008.2 - 0.0 - - - - - - -
20/05:30pm 30.3 E 8 10 1008.2 - 0.0 - - - - - - -
20/05:00pm 30.2 E 8 9 1008.1 - 0.0 - - - - - - -
20/04:30pm 30.4 E 8 10 1008.2 - 0.0 - - - - - - -
20/04:00pm 30.7 E 8 11 1008.5 - 0.0 - - - - - - -
20/03:30pm 30.6 ENE 7 9 1008.7 - 0.0 - - - - - - -
20/03:00pm 30.5 ENE 8 9 1009.1 - 0.0 - - - - - - -
20/02:30pm 30.7 E 7 9 1009.3 - 0.0 - - - - - - -
20/02:00pm 30.9 E 6 9 1009.4 - 0.0 - - - - - - -
20/01:30pm 30.6 E 6 8 1009.6 - 0.0 - - - - - - -
20/01:00pm 31.3 E 6 9 1010.0 - 0.0 - - - - - - -
20/12:30pm 30.8 E 6 8 1010.5 - 0.0 - - - - - - -
20/12:00pm 30.8 ENE 6 9 1011.1 - 0.0 - - - - - - -
20/11:30am 30.6 ENE 7 8 1011.7 - 0.0 - - - - - - -
20/11:00am 30.3 ENE 7 9 1011.9 - 0.0 - - - - - - -
20/10:30am 30.1 ENE 7 9 1012.3 - 0.0 - - - - - - -
20/10:00am 30.1 ENE 7 8 1012.5 - 0.0 - - - - - - -
20/09:30am 30.0 ENE 7 8 1012.5 - 0.0 - - - - - - -
20/09:00am 29.8 ENE 8 9 1012.3 - 0.0 - - - - - - -
20/08:30am 29.3 ENE 6 8 1012.0 - 0.0 - - - - - - -
20/08:00am 29.5 ENE 6 7 1011.9 - 0.0 - - - - - - -
20/07:30am 29.1 ENE 6 7 1011.6 - 0.0 - - - - - - -
20/07:00am 28.9 ENE 6 7 1011.3 - 0.0 - - - - - - -
20/06:30am 28.2 ENE 7 8 1010.8 - 0.0 - - - - - - -
20/06:00am 28.1 ENE 8 9 1010.4 - 0.0 - - - - - - -
20/05:30am 28.2 E 7 9 1010.2 - 0.0 - - - - - - -
20/05:00am 28.2 ENE 7 9 1010.0 - 0.0 - - - - - - -
20/04:30am 28.2 ENE 7 9 1009.8 - 0.0 - - - - - - -
20/04:00am 28.3 ENE 7 8 1009.6 - 0.0 - - - - - - -
20/03:30am 28.1 ENE 7 8 1009.5 - 0.0 - - - - - - -
20/03:00am 28.0 ENE 6 7 1009.5 - 0.0 - - - - - - -
20/02:30am 27.8 ENE 5 7 1009.5 - 0.0 - - - - - - -

Other Formats:

Comma delimited format used in spreadsheet applications
http://www.bom.gov.au/fwo/IDD60701/IDD60701.94135.axf

JavaScript Object Notation format (JSON) in row-major order
http://www.bom.gov.au/fwo/IDD60701/IDD60701.94135.json